Edina, MN (55435)

9:07 AM CST on December 27, 2014 (GMT -0600)
Edina: Fred Richards Park | Change Station
CLOSE
Current Station
Personal Weather Station
Location: Edina, MN
Elevation: 835 ft
Nearby Weather Stations

Elev 835 ft 44.87 °N, 93.34 °W | Updated 10 seconds ago

Snow
Snow
23.3 °F
Feels Like 23 °F
N
3.0
Wind Variable Wind from North
Gusts 12.0 mph

Today
High -- | Low -- °F
--% Chance of Precip.
Yesterday
High -- | Low -- °F
Precip. -- in
7:50 AM 4:38 PM
Waxing Crescent, 37% visible
Pressure 30.09 in
Visibility 2.0 miles
Clouds Few 1200 ft
Mostly Cloudy 3300 ft
Overcast 4800 ft
Windchill 23 °F
Dew Point 21 °F
Humidity 90%
Rainfall 0.15 in
Snow Depth Not available.
UV 0 out of 12
Pollen .10 out of 12
Air Quality Not available.
Flu Activity Not available.
METAR KMSP 271453Z 31012KT 2SM -SN BR FEW012 BKN033 OVC048 M05/M07 A3005 RMK AO2 SFC VIS 2 1/2 SLP189 P0001 60004 T10501072 53010

More Conditions Fewer Conditions

Pressure 30.09 in
Visibility 2.0 miles
Clouds Few 1200 ft
Mostly Cloudy 3300 ft
Overcast 4800 ft
Windchill 23 °F
Dew Point 21 °F
Humidity 90%
Rainfall 0.15 in
Snow Depth Not available.
UV 0 out of 12
Pollen .10 out of 12
Air Quality Not available.
Flu Activity Not available.
METAR KMSP 271453Z 31012KT 2SM -SN BR FEW012 BKN033 OVC048 M05/M07 A3005 RMK AO2 SFC VIS 2 1/2 SLP189 P0001 60004 T10501072 53010

More Conditions Fewer Conditions

10-Day Weather Forecast

Almanac

Astronomy

Dec. 27, 2014 Rise Set
Actual Time
Civil Twilight
Nautical Twilight
Astronomical Twilight
Moon
Length of Visible Light
Length of Day
Tomorrow will be .
, % of the Moon is Illuminated

Today's Extremes

State Highs State Lows

Community

WunderPhotos

Upload Photos

1,780,923 photos uploaded!

WunderBlogs® & News

Nearby

Air Quality

  Air Quality AQ Index Pollutant
Not available.

Snow Depth

Station Depth Elevation

Earthquake Activity

City Distance Mag. Time & Date
Minimum magnitude displayed is 2.5.

Coastal Water Temperatures

Place Temperature

Nearby Weather Stations